Time;durP1;ratioP1;P1;durP2;ratioP2;P2;SDS_P1;SDS_P2;PMS_P1;PMS_P2;Temp;Humidity;BMP_temperature;BMP_pressure;BME280_temperature;BME280_humidity;BME280_pressure;Samples;Min_cycle;Max_cycle;Signal;HPM_P1;HPM_P2
2023/06/06 00:01:36;;;;;;;;;;;;;;;;;;5027681;28;20614;-71
2023/06/06 00:04:02;;;;;;;;;;;;;;;;;;5025110;28;19981;-70
2023/06/06 00:06:33;;;;;;;;;;;;;;;;;;5033138;28;19964;-69
2023/06/06 00:08:59;;;;;;;;;;;;;;;;;;5026012;28;19937;-70
2023/06/06 00:11:25;;;;;;;;;;;;;;;;;;5026278;28;19925;-70
2023/06/06 00:13:51;;;;;;;;;;;;;;;;;;5027122;28;19979;-69
2023/06/06 00:16:17;;;;;;;;;;;;;;;;;;5027351;28;20371;-69
2023/06/06 00:18:45;;;;;;;;;;;;;;;;;;5026658;28;20023;-70
2023/06/06 00:21:12;;;;;;;;;;;;;;;;;;5027267;28;19983;-69
2023/06/06 00:23:37;;;;;;;;;;;;;;;;;;5027586;28;19921;-70
2023/06/06 00:26:03;;;;;;;;;;;;;;;;;;5028145;28;20426;-71
2023/06/06 00:28:29;;;;;;;;;;;;;;;;;;5026248;28;19921;-70
2023/06/06 00:30:55;;;;;;;;;;;;;;;;;;5026973;28;20441;-69
2023/06/06 00:33:21;;;;;;;;;;;;;;;;;;5027400;28;19952;-69
2023/06/06 00:35:48;;;;;;;;;;;;;;;;;;5027102;28;19936;-70
2023/06/06 00:38:14;;;;;;;;;;;;;;;;;;5027080;28;19931;-69
2023/06/06 00:40:40;;;;;;;;;;;;;;;;;;5027584;28;19921;-69
2023/06/06 00:43:06;;;;;;;;;;;;;;;;;;5018684;28;19988;-69
2023/06/06 00:45:32;;;;;;;;;;;;;;;;;;5024921;28;20004;-69
2023/06/06 00:47:58;;;;;;;;;;;;;;;;;;5027485;28;20001;-69
2023/06/06 00:50:25;;;;;;;;;;;;;;;;;;5014886;28;19933;-70
2023/06/06 00:52:51;;;;;;;;;;;;;;;;;;5027367;28;20251;-69
2023/06/06 00:55:17;;;;;;;;;;;;;;;;;;5025546;28;20442;-69
2023/06/06 00:57:43;;;;;;;;;;;;;;;;;;5013470;28;19951;-69
2023/06/06 01:00:10;;;;;;;;;;;;;;;;;;5023648;28;19991;-68
2023/06/06 01:02:37;;;;;;;;;;;;;;;;;;5026107;28;19925;-68
2023/06/06 01:05:03;;;;;;;;;;;;;;;;;;5026713;28;19948;-69
2023/06/06 01:07:29;;;;;;;;;;;;;;;;;;5102333;23;19925;-68
2023/06/06 01:09:55;;;;;;;;;;;;;;;;;;4994445;28;19925;-67
2023/06/06 01:12:21;;;;;;;;;;;;;;;;;;5004433;28;19936;-66
2023/06/06 01:14:47;;;;;;;;;;;;;;;;;;5006256;28;20008;-67
2023/06/06 01:17:12;;;;;;;;;;;;;;;;;;5003916;28;19925;-67
2023/06/06 01:19:38;;;;;;;;;;;;;;;;;;5004802;28;19925;-68
2023/06/06 01:22:04;;;;;;;;;;;;;;;;;;5004100;28;19928;-67
2023/06/06 01:24:30;;;;;;;;;;;;;;;;;;4998928;28;19936;-68
2023/06/06 01:26:56;;;;;;;;;;;;;;;;;;4994819;28;20016;-68
2023/06/06 01:29:22;;;;;;;;;;;;;;;;;;5005729;28;19931;-67
2023/06/06 01:31:48;;;;;;;;;;;;;;;;;;5003360;28;19926;-67
2023/06/06 01:34:14;;;;;;;;;;;;;;;;;;5003166;28;19965;-67
2023/06/06 01:36:40;;;;;;;;;;;;;;;;;;5001457;28;19929;-67
2023/06/06 01:39:06;;;;;;;;;;;;;;;;;;4998950;28;20302;-67
2023/06/06 01:41:32;;;;;;;;;;;;;;;;;;4998799;28;19937;-67
2023/06/06 01:43:58;;;;;;;;;;;;;;;;;;4993057;28;19930;-67
2023/06/06 01:46:24;;;;;;;;;;;;;;;;;;5004199;28;19925;-67
2023/06/06 01:48:50;;;;;;;;;;;;;;;;;;5003268;28;20473;-67
2023/06/06 01:51:15;;;;;;;;;;;;;;;;;;5001861;28;19925;-68
2023/06/06 01:53:41;;;;;;;;;;;;;;;;;;5005912;28;20386;-67
2023/06/06 01:56:13;;;;;;;;;;;;;;;;;;4998921;28;19960;-68
2023/06/06 01:58:39;;;;;;;;;;;;;;;;;;5001365;28;19926;-68
2023/06/06 02:01:06;;;;;;;;;;;;;;;;;;5003128;28;19945;-68
2023/06/06 02:03:32;;;;;;;;;;;;;;;;;;4990600;28;19933;-68
2023/06/06 02:05:58;;;;;;;;;;;;;;;;;;5003417;28;19929;-67
2023/06/06 02:08:24;;;;;;;;;;;;;;;;;;5008333;28;19932;-67
2023/06/06 02:10:49;;;;;;;;;;;;;;;;;;5018609;28;19972;-68
2023/06/06 02:13:15;;;;;;;;;;;;;;;;;;5011651;28;19929;-67
2023/06/06 02:15:41;;;;;;;;;;;;;;;;;;5010977;28;20383;-67
2023/06/06 02:18:07;;;;;;;;;;;;;;;;;;5013442;28;19973;-67
2023/06/06 02:20:33;;;;;;;;;;;;;;;;;;5020151;28;20309;-68
2023/06/06 02:22:59;;;;;;;;;;;;;;;;;;5019978;28;19932;-67
2023/06/06 02:25:26;;;;;;;;;;;;;;;;;;5015808;28;19932;-67
2023/06/06 02:27:53;;;;;;;;;;;;;;;;;;5011858;28;19929;-67
2023/06/06 02:30:19;;;;;;;;;;;;;;;;;;5017385;28;19925;-67
2023/06/06 02:32:46;;;;;;;;;;;;;;;;;;5007679;28;19926;-67
2023/06/06 02:35:12;;;;;;;;;;;;;;;;;;5014647;28;19925;-67
2023/06/06 02:37:38;;;;;;;;;;;;;;;;;;4986598;28;20405;-67
2023/06/06 02:40:08;;;;;;;;;;;;;;;;;;4985148;28;20379;-68
2023/06/06 02:42:34;;;;;;;;;;;;;;;;;;5012075;28;19971;-67
2023/06/06 02:45:00;;;;;;;;;;;;;;;;;;5011004;28;20405;-68
2023/06/06 02:47:26;;;;;;;;;;;;;;;;;;5006543;28;19925;-68
2023/06/06 02:49:52;;;;;;;;;;;;;;;;;;5024229;28;20401;-68
2023/06/06 02:52:18;;;;;;;;;;;;;;;;;;5010044;28;19925;-68
2023/06/06 02:54:43;;;;;;;;;;;;;;;;;;5019027;28;19926;-67
2023/06/06 02:57:09;;;;;;;;;;;;;;;;;;5021986;28;19975;-68
2023/06/06 02:59:35;;;;;;;;;;;;;;;;;;5027647;28;19932;-68
2023/06/06 03:02:03;;;;;;;;;;;;;;;;;;5024643;28;20019;-68
2023/06/06 03:04:29;;;;;;;;;;;;;;;;;;5023169;28;19929;-67
2023/06/06 03:06:56;;;;;;;;;;;;;;;;;;5027314;28;19929;-68
2023/06/06 03:09:24;;;;;;;;;;;;;;;;;;5013654;28;19983;-68
2023/06/06 03:11:50;;;;;;;;;;;;;;;;;;5018930;28;19933;-66
2023/06/06 03:14:16;;;;;;;;;;;;;;;;;;5024719;28;19995;-68
2023/06/06 03:16:42;;;;;;;;;;;;;;;;;;5026716;28;19983;-68
2023/06/06 03:19:10;;;;;;;;;;;;;;;;;;5019213;28;19973;-68
2023/06/06 03:21:36;;;;;;;;;;;;;;;;;;4999262;28;20283;-68
2023/06/06 03:24:02;;;;;;;;;;;;;;;;;;5017718;28;19951;-68
2023/06/06 03:26:29;;;;;;;;;;;;;;;;;;5019193;28;20564;-68
2023/06/06 03:28:56;;;;;;;;;;;;;;;;;;5012878;28;20433;-68
2023/06/06 03:31:23;;;;;;;;;;;;;;;;;;5021729;28;19996;-67
2023/06/06 03:33:49;;;;;;;;;;;;;;;;;;5025692;28;20439;-68
2023/06/06 03:36:16;;;;;;;;;;;;;;;;;;5018460;28;19976;-66
2023/06/06 03:38:42;;;;;;;;;;;;;;;;;;5023160;28;19929;-67
2023/06/06 03:41:08;;;;;;;;;;;;;;;;;;5011799;28;19948;-66
2023/06/06 03:43:34;;;;;;;;;;;;;;;;;;5003924;28;19929;-67
2023/06/06 03:46:00;;;;;;;;;;;;;;;;;;5018636;28;19925;-67
2023/06/06 03:48:26;;;;;;;;;;;;;;;;;;5015159;28;19932;-67
2023/06/06 03:50:52;;;;;;;;;;;;;;;;;;4997871;28;19930;-67
2023/06/06 03:53:18;;;;;;;;;;;;;;;;;;5009122;28;19929;-67
2023/06/06 03:55:44;;;;;;;;;;;;;;;;;;5013430;28;19952;-67
2023/06/06 03:58:10;;;;;;;;;;;;;;;;;;5003139;28;20377;-67
2023/06/06 04:00:37;;;;;;;;;;;;;;;;;;5012421;28;19932;-68
2023/06/06 04:03:03;;;;;;;;;;;;;;;;;;5019886;28;19932;-67
2023/06/06 04:05:32;;;;;;;;;;;;;;;;;;5026724;28;19948;-67
2023/06/06 04:07:59;;;;;;;;;;;;;;;;;;5020476;28;20382;-66
2023/06/06 04:10:24;;;;;;;;;;;;;;;;;;5011219;28;19926;-65
2023/06/06 04:12:51;;;;;;;;;;;;;;;;;;4993901;28;20575;-65
2023/06/06 04:15:16;;;;;;;;;;;;;;;;;;5006338;28;19925;-65
2023/06/06 04:17:42;;;;;;;;;;;;;;;;;;5016141;28;19935;-65
2023/06/06 04:20:08;;;;;;;;;;;;;;;;;;5012069;28;20482;-65
2023/06/06 04:22:38;;;;;;;;;;;;;;;;;;5014542;28;19961;-66
2023/06/06 04:25:04;;;;;;;;;;;;;;;;;;4993728;28;20379;-68
2023/06/06 04:27:31;;;;;;;;;;;;;;;;;;5006559;28;19929;-67
2023/06/06 04:30:01;;;;;;;;;;;;;;;;;;5012016;28;20009;-67
2023/06/06 04:32:27;;;;;;;;;;;;;;;;;;5005770;28;20787;-68
2023/06/06 04:34:57;;;;;;;;;;;;;;;;;;5013866;28;20367;-67
2023/06/06 04:37:23;;;;;;;;;;;;;;;;;;5014492;28;19980;-65
2023/06/06 04:39:52;;;;;;;;;;;;;;;;;;5021161;28;19925;-69
2023/06/06 04:42:19;;;;;;;;;;;;;;;;;;4989225;28;20382;-65
2023/06/06 04:44:46;;;;;;;;;;;;;;;;;;5015440;28;20693;-65
2023/06/06 04:47:12;;;;;;;;;;;;;;;;;;5017390;28;19980;-65
2023/06/06 04:49:39;;;;;;;;;;;;;;;;;;5007749;28;19926;-65
2023/06/06 04:52:05;;;;;;;;;;;;;;;;;;4984217;28;20405;-66
2023/06/06 04:54:31;;;;;;;;;;;;;;;;;;5009753;28;19921;-65
2023/06/06 04:56:58;;;;;;;;;;;;;;;;;;5008568;28;19979;-66
2023/06/06 04:59:24;;;;;;;;;;;;;;;;;;5005691;28;20017;-66
2023/06/06 05:01:51;;;;;;;;;;;;;;;;;;5005081;28;20035;-65
2023/06/06 05:04:17;;;;;;;;;;;;;;;;;;5016198;28;19948;-68
2023/06/06 05:06:43;;;;;;;;;;;;;;;;;;5026526;28;20020;-67
2023/06/06 05:09:12;;;;;;;;;;;;;;;;;;5011310;28;20394;-67
2023/06/06 05:11:38;;;;;;;;;;;;;;;;;;4994980;28;19948;-68
2023/06/06 05:14:04;;;;;;;;;;;;;;;;;;5018254;28;19925;-68
2023/06/06 05:16:30;;;;;;;;;;;;;;;;;;5017110;28;19934;-66
2023/06/06 05:18:56;;;;;;;;;;;;;;;;;;5018857;28;19940;-70
2023/06/06 05:21:22;;;;;;;;;;;;;;;;;;4994492;28;19943;-68
2023/06/06 05:23:48;;;;;;;;;;;;;;;;;;5010291;28;19930;-70
2023/06/06 05:26:14;;;;;;;;;;;;;;;;;;5013118;28;19984;-67
2023/06/06 05:28:40;;;;;;;;;;;;;;;;;;5005605;28;20358;-67
2023/06/06 05:31:07;;;;;;;;;;;;;;;;;;5016685;28;19971;-67
2023/06/06 05:33:33;;;;;;;;;;;;;;;;;;5015863;28;19925;-66
2023/06/06 05:36:00;;;;;;;;;;;;;;;;;;5020736;28;19925;-67
2023/06/06 05:38:26;;;;;;;;;;;;;;;;;;5014787;28;19972;-67
2023/06/06 05:40:52;;;;;;;;;;;;;;;;;;5006967;28;19968;-66
2023/06/06 05:43:18;;;;;;;;;;;;;;;;;;5008620;28;19931;-68
2023/06/06 05:45:44;;;;;;;;;;;;;;;;;;5000478;28;19925;-67
2023/06/06 05:48:10;;;;;;;;;;;;;;;;;;5013224;28;19932;-68
2023/06/06 05:50:35;;;;;;;;;;;;;;;;;;5000040;28;19926;-68
2023/06/06 05:53:02;;;;;;;;;;;;;;;;;;5015864;28;19933;-68
2023/06/06 05:55:28;;;;;;;;;;;;;;;;;;5023885;28;19925;-68
2023/06/06 05:57:55;;;;;;;;;;;;;;;;;;5016145;28;19926;-67
2023/06/06 06:00:21;;;;;;;;;;;;;;;;;;4999047;28;20012;-68
2023/06/06 06:02:51;;;;;;;;;;;;;;;;;;5015485;28;20028;-67
2023/06/06 06:05:17;;;;;;;;;;;;;;;;;;5023568;28;19926;-68
2023/06/06 06:07:43;;;;;;;;;;;;;;;;;;5019257;28;19929;-68
2023/06/06 06:10:09;;;;;;;;;;;;;;;;;;5007769;28;19925;-68
2023/06/06 06:12:35;;;;;;;;;;;;;;;;;;5015840;28;19921;-68
2023/06/06 06:15:00;;;;;;;;;;;;;;;;;;5011195;28;20033;-68
2023/06/06 06:17:26;;;;;;;;;;;;;;;;;;5012231;28;20263;-68
2023/06/06 06:19:52;;;;;;;;;;;;;;;;;;5011298;28;19925;-68
2023/06/06 06:22:18;;;;;;;;;;;;;;;;;;5010851;28;19925;-68
2023/06/06 06:24:44;;;;;;;;;;;;;;;;;;4978206;28;19926;-68
2023/06/06 06:27:10;;;;;;;;;;;;;;;;;;5001705;28;19936;-68
2023/06/06 06:29:36;;;;;;;;;;;;;;;;;;5008729;28;20020;-68
2023/06/06 06:32:02;;;;;;;;;;;;;;;;;;5005508;28;20470;-68
2023/06/06 06:34:28;;;;;;;;;;;;;;;;;;5020702;28;19932;-67
2023/06/06 06:36:54;;;;;;;;;;;;;;;;;;4996776;28;19988;-68
2023/06/06 06:39:20;;;;;;;;;;;;;;;;;;5012480;28;19957;-68
2023/06/06 06:41:46;;;;;;;;;;;;;;;;;;5018738;28;20298;-68
2023/06/06 06:44:12;;;;;;;;;;;;;;;;;;5010391;28;19921;-68
2023/06/06 06:46:38;;;;;;;;;;;;;;;;;;5014946;28;19935;-68
2023/06/06 06:49:03;;;;;;;;;;;;;;;;;;5006581;28;19925;-68
2023/06/06 06:51:30;;;;;;;;;;;;;;;;;;5010168;28;19925;-68
2023/06/06 06:53:57;;;;;;;;;;;;;;;;;;5003161;28;19930;-68
2023/06/06 06:56:24;;;;;;;;;;;;;;;;;;5003444;28;20067;-68
2023/06/06 06:58:50;;;;;;;;;;;;;;;;;;5007235;28;19925;-69
2023/06/06 07:01:18;;;;;;;;;;;;;;;;;;5008403;28;19921;-68
2023/06/06 07:03:47;;;;;;;;;;;;;;;;;;5011171;28;19929;-68
2023/06/06 07:06:13;;;;;;;;;;;;;;;;;;5023867;28;19925;-68
2023/06/06 07:08:41;;;;;;;;;;;;;;;;;;5008066;28;19976;-68
2023/06/06 07:11:07;;;;;;;;;;;;;;;;;;5015222;28;20342;-68
2023/06/06 07:13:33;;;;;;;;;;;;;;;;;;5007669;28;20470;-68
2023/06/06 07:15:59;;;;;;;;;;;;;;;;;;5017647;28;19929;-68
2023/06/06 07:18:25;;;;;;;;;;;;;;;;;;5006150;28;19996;-68
2023/06/06 07:20:51;;;;;;;;;;;;;;;;;;5014328;28;19929;-67
2023/06/06 07:23:17;;;;;;;;;;;;;;;;;;5005490;28;19926;-68
2023/06/06 07:25:43;;;;;;;;;;;;;;;;;;5011040;28;20386;-68
2023/06/06 07:28:10;;;;;;;;;;;;;;;;;;4982886;28;19988;-68
2023/06/06 07:30:36;;;;;;;;;;;;;;;;;;5006880;28;19925;-68
2023/06/06 07:33:03;;;;;;;;;;;;;;;;;;5001561;28;19932;-69
2023/06/06 07:35:32;;;;;;;;;;;;;;;;;;5020672;28;19960;-68
2023/06/06 07:37:58;;;;;;;;;;;;;;;;;;5004530;28;19947;-68
2023/06/06 07:40:24;;;;;;;;;;;;;;;;;;5005319;28;19925;-68
2023/06/06 07:42:50;;;;;;;;;;;;;;;;;;5015033;28;19980;-68
2023/06/06 07:45:16;;;;;;;;;;;;;;;;;;5018228;28;20390;-68
2023/06/06 07:47:43;;;;;;;;;;;;;;;;;;5007526;28;19961;-68
2023/06/06 07:50:09;;;;;;;;;;;;;;;;;;5004470;28;20318;-68
2023/06/06 07:52:35;;;;;;;;;;;;;;;;;;5003390;28;19926;-69
2023/06/06 07:55:01;;;;;;;;;;;;;;;;;;5017004;28;19929;-67
2023/06/06 07:57:27;;;;;;;;;;;;;;;;;;4975829;28;19933;-68
2023/06/06 07:59:53;;;;;;;;;;;;;;;;;;5012986;28;19977;-68
2023/06/06 08:02:19;;;;;;;;;;;;;;;;;;5004818;28;19933;-68
2023/06/06 08:04:47;;;;;;;;;;;;;;;;;;5020014;28;19929;-69
2023/06/06 08:07:13;;;;;;;;;;;;;;;;;;5025882;28;19960;-68
2023/06/06 08:09:39;;;;;;;;;;;;;;;;;;5019798;28;19933;-68
2023/06/06 08:12:05;;;;;;;;;;;;;;;;;;5009745;28;19926;-68
2023/06/06 08:14:31;;;;;;;;;;;;;;;;;;5016380;28;19968;-64
2023/06/06 08:16:57;;;;;;;;;;;;;;;;;;5017404;28;19925;-68
2023/06/06 08:19:23;;;;;;;;;;;;;;;;;;5011228;28;19925;-68
2023/06/06 08:21:49;;;;;;;;;;;;;;;;;;5015628;28;20442;-68
2023/06/06 08:24:15;;;;;;;;;;;;;;;;;;5005847;28;19971;-68
2023/06/06 08:26:41;;;;;;;;;;;;;;;;;;5002842;28;19921;-68
2023/06/06 08:29:07;;;;;;;;;;;;;;;;;;5010117;28;19941;-68
2023/06/06 08:31:33;;;;;;;;;;;;;;;;;;5006574;28;19929;-68
2023/06/06 08:33:59;;;;;;;;;;;;;;;;;;5020369;28;19921;-68
2023/06/06 08:36:25;;;;;;;;;;;;;;;;;;5023545;28;19932;-68
2023/06/06 08:38:52;;;;;;;;;;;;;;;;;;5020877;28;19929;-68
2023/06/06 08:41:18;;;;;;;;;;;;;;;;;;5016059;28;19925;-68
2023/06/06 08:43:44;;;;;;;;;;;;;;;;;;5020489;28;19925;-68
2023/06/06 08:46:11;;;;;;;;;;;;;;;;;;5010354;28;20011;-68
2023/06/06 08:48:37;;;;;;;;;;;;;;;;;;5014798;28;20016;-68
2023/06/06 08:51:03;;;;;;;;;;;;;;;;;;5016211;28;20002;-69
2023/06/06 08:53:29;;;;;;;;;;;;;;;;;;5011532;28;19925;-68
2023/06/06 08:55:55;;;;;;;;;;;;;;;;;;5013211;28;19932;-66
2023/06/06 08:58:21;;;;;;;;;;;;;;;;;;5017748;28;20358;-67
2023/06/06 09:00:49;;;;;;;;;;;;;;;;;;5003787;28;19930;-67
2023/06/06 09:03:15;;;;;;;;;;;;;;;;;;5010059;28;19932;-68
2023/06/06 09:05:41;;;;;;;;;;;;;;;;;;5024138;28;19951;-67
2023/06/06 09:08:07;;;;;;;;;;;;;;;;;;5018385;28;20310;-68
2023/06/06 09:10:33;;;;;;;;;;;;;;;;;;5009843;28;19932;-68
2023/06/06 09:12:59;;;;;;;;;;;;;;;;;;5018462;28;19952;-68
2023/06/06 09:15:28;;;;;;;;;;;;;;;;;;5002977;28;19926;-68
2023/06/06 09:17:54;;;;;;;;;;;;;;;;;;5014327;28;19932;-68
2023/06/06 09:20:20;;;;;;;;;;;;;;;;;;5006844;28;19971;-68
2023/06/06 09:22:46;;;;;;;;;;;;;;;;;;5011032;28;20505;-68
2023/06/06 09:25:12;;;;;;;;;;;;;;;;;;5010272;28;19948;-67
2023/06/06 09:27:37;;;;;;;;;;;;;;;;;;5008326;28;19921;-68
2023/06/06 09:30:03;;;;;;;;;;;;;;;;;;5014869;28;19980;-69
2023/06/06 09:32:29;;;;;;;;;;;;;;;;;;5005960;28;19925;-68
2023/06/06 09:34:55;;;;;;;;;;;;;;;;;;5012952;28;19921;-68
2023/06/06 09:37:21;;;;;;;;;;;;;;;;;;5022965;28;19952;-68
2023/06/06 09:39:47;;;;;;;;;;;;;;;;;;5020044;28;19931;-69
2023/06/06 09:42:13;;;;;;;;;;;;;;;;;;5023644;28;20387;-68
2023/06/06 09:44:39;;;;;;;;;;;;;;;;;;4994246;28;19976;-68
2023/06/06 09:47:06;;;;;;;;;;;;;;;;;;5018511;28;19925;-69
2023/06/06 09:49:32;;;;;;;;;;;;;;;;;;5009380;28;20382;-68
2023/06/06 09:51:58;;;;;;;;;;;;;;;;;;5014601;28;19925;-68
2023/06/06 09:54:24;;;;;;;;;;;;;;;;;;5007029;28;19926;-68
2023/06/06 09:56:51;;;;;;;;;;;;;;;;;;5009756;28;19925;-68
2023/06/06 09:59:17;;;;;;;;;;;;;;;;;;5004026;28;19971;-68
2023/06/06 10:01:43;;;;;;;;;;;;;;;;;;5007015;28;20392;-68
2023/06/06 10:04:09;;;;;;;;;;;;;;;;;;5018019;28;20429;-68
2023/06/06 10:06:38;;;;;;;;;;;;;;;;;;5024854;28;19948;-68
2023/06/06 10:09:07;;;;;;;;;;;;;;;;;;5008723;28;19978;-69
2023/06/06 10:11:33;;;;;;;;;;;;;;;;;;5012024;28;19925;-68
2023/06/06 10:13:59;;;;;;;;;;;;;;;;;;5010901;28;19932;-68
2023/06/06 10:16:25;;;;;;;;;;;;;;;;;;5014981;28;19971;-68
2023/06/06 10:18:51;;;;;;;;;;;;;;;;;;5004231;28;19929;-66
2023/06/06 10:21:17;;;;;;;;;;;;;;;;;;5012603;28;19947;-68
2023/06/06 10:23:43;;;;;;;;;;;;;;;;;;4999554;28;20037;-68
2023/06/06 10:26:09;;;;;;;;;;;;;;;;;;5008442;28;20026;-68
2023/06/06 10:28:35;;;;;;;;;;;;;;;;;;5012504;28;19921;-68
2023/06/06 10:31:01;;;;;;;;;;;;;;;;;;4983995;28;20354;-65
2023/06/06 10:33:27;;;;;;;;;;;;;;;;;;5010223;28;20298;-68
2023/06/06 10:35:53;;;;;;;;;;;;;;;;;;5022708;28;20543;-68
2023/06/06 10:38:19;;;;;;;;;;;;;;;;;;5005570;28;20022;-68
2023/06/06 10:40:44;;;;;;;;;;;;;;;;;;5019376;28;20078;-68
2023/06/06 10:43:11;;;;;;;;;;;;;;;;;;5015532;28;19951;-67
2023/06/06 10:45:37;;;;;;;;;;;;;;;;;;5010026;28;19932;-68
2023/06/06 10:48:03;;;;;;;;;;;;;;;;;;5016859;28;19933;-68
2023/06/06 10:50:29;;;;;;;;;;;;;;;;;;5013036;28;20468;-68
2023/06/06 10:52:55;;;;;;;;;;;;;;;;;;5004610;28;19933;-68
2023/06/06 10:55:21;;;;;;;;;;;;;;;;;;5024328;28;19929;-68
2023/06/06 10:57:47;;;;;;;;;;;;;;;;;;5006488;28;20379;-68
2023/06/06 11:00:13;;;;;;;;;;;;;;;;;;5013982;28;19933;-68
2023/06/06 11:02:39;;;;;;;;;;;;;;;;;;5008677;28;19972;-68
2023/06/06 11:05:05;;;;;;;;;;;;;;;;;;5024030;28;19929;-68
2023/06/06 11:07:32;;;;;;;;;;;;;;;;;;5021647;28;20383;-66
2023/06/06 11:09:58;;;;;;;;;;;;;;;;;;5022247;28;19925;-69
2023/06/06 11:12:24;;;;;;;;;;;;;;;;;;5019116;28;19921;-68
2023/06/06 11:14:50;;;;;;;;;;;;;;;;;;5019726;28;19929;-67
2023/06/06 11:17:16;;;;;;;;;;;;;;;;;;5002410;28;19933;-69
2023/06/06 11:19:43;;;;;;;;;;;;;;;;;;5018941;28;20334;-67
2023/06/06 11:22:09;;;;;;;;;;;;;;;;;;5007519;28;20381;-68
2023/06/06 11:24:35;;;;;;;;;;;;;;;;;;5002099;28;20422;-68
2023/06/06 11:27:01;;;;;;;;;;;;;;;;;;5020310;28;19951;-68
2023/06/06 11:29:27;;;;;;;;;;;;;;;;;;5027814;28;20295;-67
2023/06/06 11:31:53;;;;;;;;;;;;;;;;;;5018364;28;19936;-67
2023/06/06 11:34:19;;;;;;;;;;;;;;;;;;5010979;28;20012;-68
2023/06/06 11:36:45;;;;;;;;;;;;;;;;;;5014122;28;19932;-67
2023/06/06 11:39:11;;;;;;;;;;;;;;;;;;5014051;28;20028;-67
2023/06/06 11:41:37;;;;;;;;;;;;;;;;;;5008082;28;19972;-68
2023/06/06 11:44:03;;;;;;;;;;;;;;;;;;5004586;28;19972;-67
2023/06/06 11:46:29;;;;;;;;;;;;;;;;;;5010873;28;19961;-67
2023/06/06 11:48:55;;;;;;;;;;;;;;;;;;5008046;28;20421;-67
2023/06/06 11:51:21;;;;;;;;;;;;;;;;;;5019738;28;19937;-67
2023/06/06 11:53:48;;;;;;;;;;;;;;;;;;5021927;28;19979;-67
2023/06/06 11:56:13;;;;;;;;;;;;;;;;;;5012163;28;20029;-67
2023/06/06 11:58:41;;;;;;;;;;;;;;;;;;5026773;28;20015;-67
2023/06/06 12:01:08;;;;;;;;;;;;;;;;;;5014448;28;19926;-68
2023/06/06 12:03:34;;;;;;;;;;;;;;;;;;5018417;28;19975;-68
2023/06/06 12:06:00;;;;;;;;;;;;;;;;;;5027937;28;19984;-67
2023/06/06 12:08:26;;;;;;;;;;;;;;;;;;5016718;28;19979;-68
2023/06/06 12:10:52;;;;;;;;;;;;;;;;;;5016618;28;19976;-67
2023/06/06 12:13:18;;;;;;;;;;;;;;;;;;5014646;28;19929;-67
2023/06/06 12:15:44;;;;;;;;;;;;;;;;;;5015718;28;20374;-64
2023/06/06 12:18:10;;;;;;;;;;;;;;;;;;5010908;28;19934;-64
2023/06/06 12:20:36;;;;;;;;;;;;;;;;;;5010544;28;19932;-63
2023/06/06 12:23:02;;;;;;;;;;;;;;;;;;5006997;28;19926;-63
2023/06/06 12:25:28;;;;;;;;;;;;;;;;;;5005773;28;20370;-64
2023/06/06 12:27:54;;;;;;;;;;;;;;;;;;5004636;28;19955;-63
2023/06/06 12:30:20;;;;;;;;;;;;;;;;;;5008615;28;20000;-63
2023/06/06 12:32:47;;;;;;;;;;;;;;;;;;5010050;28;19972;-64
2023/06/06 12:35:13;;;;;;;;;;;;;;;;;;5007148;28;19941;-64
2023/06/06 12:37:39;;;;;;;;;;;;;;;;;;5013161;28;20338;-63
2023/06/06 12:40:09;;;;;;;;;;;;;;;;;;5003645;28;19933;-65
2023/06/06 12:42:35;;;;;;;;;;;;;;;;;;5014253;28;20421;-67
2023/06/06 12:45:02;;;;;;;;;;;;;;;;;;5015938;28;19932;-66
2023/06/06 12:47:28;;;;;;;;;;;;;;;;;;5019544;28;19921;-65
2023/06/06 12:49:54;;;;;;;;;;;;;;;;;;5013468;28;19933;-65
2023/06/06 12:52:20;;;;;;;;;;;;;;;;;;5020952;28;19921;-64
2023/06/06 12:54:46;;;;;;;;;;;;;;;;;;5017384;28;19925;-65
2023/06/06 12:57:12;;;;;;;;;;;;;;;;;;5010623;28;19936;-65
2023/06/06 12:59:39;;;;;;;;;;;;;;;;;;5018587;28;19925;-65
2023/06/06 13:02:06;;;;;;;;;;;;;;;;;;4982115;28;20383;-65
2023/06/06 13:04:32;;;;;;;;;;;;;;;;;;5013477;28;20314;-65
2023/06/06 13:06:58;;;;;;;;;;;;;;;;;;5017074;28;19981;-64
2023/06/06 13:09:25;;;;;;;;;;;;;;;;;;5017751;28;19925;-64
2023/06/06 13:11:51;;;;;;;;;;;;;;;;;;5011699;28;20588;-64
2023/06/06 13:14:17;;;;;;;;;;;;;;;;;;5005702;28;19936;-64
2023/06/06 13:16:43;;;;;;;;;;;;;;;;;;4999046;28;19926;-64
2023/06/06 13:19:09;;;;;;;;;;;;;;;;;;5009895;28;19968;-65
2023/06/06 13:21:35;;;;;;;;;;;;;;;;;;4999988;28;19933;-64
2023/06/06 13:24:01;;;;;;;;;;;;;;;;;;5009853;28;19929;-65
2023/06/06 13:26:26;;;;;;;;;;;;;;;;;;5007562;28;20021;-64
2023/06/06 13:28:52;;;;;;;;;;;;;;;;;;5004747;28;19933;-64
2023/06/06 13:31:18;;;;;;;;;;;;;;;;;;5014610;28;19929;-64
2023/06/06 13:33:44;;;;;;;;;;;;;;;;;;5002732;28;19930;-64
2023/06/06 13:36:10;;;;;;;;;;;;;;;;;;5010826;28;20493;-64
2023/06/06 13:38:36;;;;;;;;;;;;;;;;;;4999610;28;19926;-65
2023/06/06 13:41:02;;;;;;;;;;;;;;;;;;5010936;28;19925;-64
2023/06/06 13:43:28;;;;;;;;;;;;;;;;;;5014153;28;19952;-64
2023/06/06 13:45:54;;;;;;;;;;;;;;;;;;5020786;28;19929;-64
2023/06/06 13:48:20;;;;;;;;;;;;;;;;;;5019834;28;19925;-64
2023/06/06 13:50:45;;;;;;;;;;;;;;;;;;5017169;28;20647;-64
2023/06/06 13:53:14;;;;;;;;;;;;;;;;;;5014853;28;19929;-64
2023/06/06 13:55:40;;;;;;;;;;;;;;;;;;5009728;28;19925;-64
2023/06/06 13:58:08;;;;;;;;;;;;;;;;;;5009457;28;20268;-65
2023/06/06 14:00:34;;;;;;;;;;;;;;;;;;4996407;28;19934;-64
2023/06/06 14:03:00;;;;;;;;;;;;;;;;;;5006654;28;19921;-64
2023/06/06 14:05:26;;;;;;;;;;;;;;;;;;5024021;28;19934;-64
2023/06/06 14:07:52;;;;;;;;;;;;;;;;;;5016172;28;19925;-64
2023/06/06 14:10:19;;;;;;;;;;;;;;;;;;5007794;28;20442;-64
2023/06/06 14:12:46;;;;;;;;;;;;;;;;;;5017746;28;20293;-64
2023/06/06 14:15:12;;;;;;;;;;;;;;;;;;5009123;28;19925;-64
2023/06/06 14:17:38;;;;;;;;;;;;;;;;;;5013415;28;19977;-65
2023/06/06 14:20:11;;;;;;;;;;;;;;;;;;5004698;28;19991;-64
2023/06/06 14:22:37;;;;;;;;;;;;;;;;;;5008905;28;19951;-66
2023/06/06 14:25:03;;;;;;;;;;;;;;;;;;5000718;28;19930;-66
2023/06/06 14:27:29;;;;;;;;;;;;;;;;;;5004321;28;19926;-64
2023/06/06 14:29:55;;;;;;;;;;;;;;;;;;5013683;28;20531;-64
2023/06/06 14:32:22;;;;;;;;;;;;;;;;;;5019000;28;19934;-65
2023/06/06 14:34:47;;;;;;;;;;;;;;;;;;5017578;28;19960;-68
2023/06/06 14:37:13;;;;;;;;;;;;;;;;;;5020795;28;19925;-67
2023/06/06 14:39:39;;;;;;;;;;;;;;;;;;5020890;28;19933;-65
2023/06/06 14:42:06;;;;;;;;;;;;;;;;;;5026338;28;19971;-67
2023/06/06 14:44:36;;;;;;;;;;;;;;;;;;5003463;28;19925;-69
2023/06/06 14:47:02;;;;;;;;;;;;;;;;;;5014903;28;20017;-68
2023/06/06 14:49:28;;;;;;;;;;;;;;;;;;5010491;28;19968;-67
2023/06/06 14:51:54;;;;;;;;;;;;;;;;;;5025922;28;19929;-65
2023/06/06 14:54:20;;;;;;;;;;;;;;;;;;5024055;28;19936;-67
2023/06/06 14:56:46;;;;;;;;;;;;;;;;;;5021886;28;20387;-65
2023/06/06 14:59:12;;;;;;;;;;;;;;;;;;5021366;28;19952;-66
2023/06/06 15:01:39;;;;;;;;;;;;;;;;;;5019181;28;19933;-67
2023/06/06 15:04:05;;;;;;;;;;;;;;;;;;5016935;28;19972;-61
2023/06/06 15:06:31;;;;;;;;;;;;;;;;;;5022974;28;20377;-63
2023/06/06 15:08:57;;;;;;;;;;;;;;;;;;5026922;28;20144;-62
2023/06/06 15:11:24;;;;;;;;;;;;;;;;;;5027985;28;20016;-61
2023/06/06 15:13:50;;;;;;;;;;;;;;;;;;5020219;28;20003;-61
2023/06/06 15:16:15;;;;;;;;;;;;;;;;;;5018795;28;19968;-61
2023/06/06 15:18:41;;;;;;;;;;;;;;;;;;5015688;28;19959;-62
2023/06/06 15:21:07;;;;;;;;;;;;;;;;;;5021150;28;20008;-62
2023/06/06 15:23:33;;;;;;;;;;;;;;;;;;5021177;28;20387;-64
2023/06/06 15:25:59;;;;;;;;;;;;;;;;;;5015759;28;19925;-62
2023/06/06 15:28:25;;;;;;;;;;;;;;;;;;5024432;28;20399;-62
2023/06/06 15:30:55;;;;;;;;;;;;;;;;;;5019599;28;19930;-61
2023/06/06 15:33:21;;;;;;;;;;;;;;;;;;5024293;28;19968;-64
2023/06/06 15:35:47;;;;;;;;;;;;;;;;;;5021266;28;19926;-62
2023/06/06 15:38:15;;;;;;;;;;;;;;;;;;5008080;28;19979;-62
2023/06/06 15:40:41;;;;;;;;;;;;;;;;;;5024473;28;19972;-63
2023/06/06 15:43:07;;;;;;;;;;;;;;;;;;5021285;28;19929;-63
2023/06/06 15:45:32;;;;;;;;;;;;;;;;;;5010065;28;20031;-63
2023/06/06 15:47:58;;;;;;;;;;;;;;;;;;5022203;28;19965;-62
2023/06/06 15:50:24;;;;;;;;;;;;;;;;;;5017703;28;19925;-63
2023/06/06 15:52:50;;;;;;;;;;;;;;;;;;5018742;28;20019;-63
2023/06/06 15:55:17;;;;;;;;;;;;;;;;;;5009895;28;19925;-63
2023/06/06 15:57:43;;;;;;;;;;;;;;;;;;5020235;28;19925;-63
2023/06/06 16:00:09;;;;;;;;;;;;;;;;;;5022727;28;20450;-63
2023/06/06 16:02:35;;;;;;;;;;;;;;;;;;5017710;28;19988;-63
2023/06/06 16:05:01;;;;;;;;;;;;;;;;;;5015829;28;20043;-64
2023/06/06 16:07:27;;;;;;;;;;;;;;;;;;5020734;28;19933;-63
2023/06/06 16:09:52;;;;;;;;;;;;;;;;;;5013012;28;19925;-63
2023/06/06 16:12:18;;;;;;;;;;;;;;;;;;5020069;28;21429;-63
2023/06/06 16:14:44;;;;;;;;;;;;;;;;;;5014379;28;19984;-63
2023/06/06 16:17:12;;;;;;;;;;;;;;;;;;5018389;28;19951;-63
2023/06/06 16:19:38;;;;;;;;;;;;;;;;;;5019319;28;19925;-62
2023/06/06 16:22:04;;;;;;;;;;;;;;;;;;5006877;28;19933;-63
2023/06/06 16:24:30;;;;;;;;;;;;;;;;;;5014597;28;20586;-63
2023/06/06 16:26:56;;;;;;;;;;;;;;;;;;5019187;28;19937;-62
2023/06/06 16:29:21;;;;;;;;;;;;;;;;;;5019061;28;19929;-62
2023/06/06 16:31:47;;;;;;;;;;;;;;;;;;5011069;28;20379;-62
2023/06/06 16:34:13;;;;;;;;;;;;;;;;;;5023557;28;19922;-62
2023/06/06 16:36:40;;;;;;;;;;;;;;;;;;5020702;28;19936;-61
2023/06/06 16:39:07;;;;;;;;;;;;;;;;;;5006916;28;20379;-63